メインページ
METAR-TAF:

METAR-TAF

空港 :

アンカレッジ, アラスカ州, アメリカ合衆国

テッド・スティーブンス・アンカレッジ国際空港

緯度: 61-10-28N, 経度: 149-59-46W, 海抜: 44m

現時点の気象観測

当レポートは21分前の22:15(UTC)に作成
北/北西の風 5kt
気温 16°C
湿度 82%
気圧 1010 hPa
視程: 16.1km
高度800ftの雲はほとんどない
高度2000ftの雲は散在している
高度5500ftの曇り

METAR: PANC 262215Z 33005KT 10SM FEW008 SCT020 OVC055 16/13 A2983 RMK AO2 T01610133

時間: 14:36 (22:36 UTC)

予報

当レポートは1時間17分前の21:19(UTC)に作成
予報は26日の 21時(UTC)から 27日の 24時(UTC)まで有効
北西の風 4kt
視程: 9.7km
高度600ftの千切れ雲あり
高度1100ftの曇り
小雨
26日の 21時(UTC)から 26日の 22時(UTC)まで一時的に
視程: 9.7km
高度1500ftの千切れ雲あり
高度3500ftの曇り
小雨, 靄
26日の 2200時(UTC)から
変向風 3kt
視程: 9.7km
高度1200ftの雲は散在している
高度3500ftの曇り
小雨
27日の 0000時(UTC)から
北西の風 5kt
視程: 10km
高度1500ftの雲は散在している
高度2500ftの千切れ雲あり
近辺でにわか雨
27日の 0600時(UTC)から
変向風 3kt
視程: 10km
高度2500ftの雲は散在している
高度5000ftの曇り

TAF: PANC 262119Z 2621/2724 32004KT 6SM -RA BKN006 OVC011 TEMPO 2621/2622 6SM -RA BR BKN015 OVC035 FM262200 VRB03KT 6SM -RA SCT012 OVC035 FM270000 31005KT P6SM VCSH SCT015 BKN025 FM270600 VRB03KT P6SM SCT025 OVC050

4,000以上の空港の気象観測と天気予報(METAR報とTAF報)

利用可能な観測所は地図上に黄色い丸と赤い丸で示す。

丸の上にカーソルを重ねると観測所名を参照できる。

次にクリックすると気象観測と天気予報を参照できる。

マップの切り替え:黒色「×」印の緑ボタンをクリックして拡大、「-」印の緑ボタンをクリックして縮小、緑色の三角印をクリックして隣りの地図に切り替え


METAR-TAF: